sensor_id;sensor_type;location;lat;lon;timestamp;pressure;altitude;pressure_sealevel;temperature;humidity
19748;BME280;10032;51.386;12.516;2023-06-01T00:01:33;100510.13;;;15.60;94.85
19748;BME280;10032;51.386;12.516;2023-06-01T00:04:02;100521.06;;;15.55;95.11
19748;BME280;10032;51.386;12.516;2023-06-01T00:06:28;100519.13;;;15.46;95.25
19748;BME280;10032;51.386;12.516;2023-06-01T00:08:56;100514.75;;;15.40;95.51
19748;BME280;10032;51.386;12.516;2023-06-01T00:11:21;100511.22;;;15.34;96.30
19748;BME280;10032;51.386;12.516;2023-06-01T00:13:48;100506.81;;;15.28;96.71
19748;BME280;10032;51.386;12.516;2023-06-01T00:16:14;100512.78;;;15.25;96.86
19748;BME280;10032;51.386;12.516;2023-06-01T00:18:40;100516.63;;;15.19;96.90
19748;BME280;10032;51.386;12.516;2023-06-01T00:21:08;100516.06;;;15.12;97.03
19748;BME280;10032;51.386;12.516;2023-06-01T00:23:36;100509.50;;;15.08;96.94
19748;BME280;10032;51.386;12.516;2023-06-01T00:26:07;100516.56;;;15.04;97.43
19748;BME280;10032;51.386;12.516;2023-06-01T00:28:33;100511.66;;;15.01;98.03
19748;BME280;10032;51.386;12.516;2023-06-01T00:30:59;100511.66;;;14.96;98.13
19748;BME280;10032;51.386;12.516;2023-06-01T00:33:24;100516.56;;;14.94;98.77
19748;BME280;10032;51.386;12.516;2023-06-01T00:35:50;100513.81;;;14.94;98.48
19748;BME280;10032;51.386;12.516;2023-06-01T00:38:16;100512.44;;;14.92;98.54
19748;BME280;10032;51.386;12.516;2023-06-01T00:40:42;100509.72;;;14.87;99.35
19748;BME280;10032;51.386;12.516;2023-06-01T00:43:09;100510.53;;;14.82;99.54
19748;BME280;10032;51.386;12.516;2023-06-01T00:45:35;100510.50;;;14.77;99.98
19748;BME280;10032;51.386;12.516;2023-06-01T00:48:01;100525.75;;;14.73;100.00
19748;BME280;10032;51.386;12.516;2023-06-01T00:50:26;100512.69;;;14.70;100.00
19748;BME280;10032;51.386;12.516;2023-06-01T00:52:52;100510.47;;;14.67;100.00
19748;BME280;10032;51.386;12.516;2023-06-01T00:55:20;100512.34;;;14.62;100.00
19748;BME280;10032;51.386;12.516;2023-06-01T00:57:46;100515.88;;;14.57;100.00
19748;BME280;10032;51.386;12.516;2023-06-01T01:00:30;100514.75;;;14.53;100.00
19748;BME280;10032;51.386;12.516;2023-06-01T01:02:58;100517.47;;;14.48;100.00
19748;BME280;10032;51.386;12.516;2023-06-01T01:05:26;100510.94;;;14.44;100.00
19748;BME280;10032;51.386;12.516;2023-06-01T01:08:09;100513.38;;;14.41;100.00
19748;BME280;10032;51.386;12.516;2023-06-01T01:10:40;100508.69;;;14.36;100.00
19748;BME280;10032;51.386;12.516;2023-06-01T01:16:05;100510.03;;;14.29;100.00
19748;BME280;10032;51.386;12.516;2023-06-01T01:18:36;100511.63;;;14.25;100.00
19748;BME280;10032;51.386;12.516;2023-06-01T01:21:04;100516.78;;;14.21;100.00
19748;BME280;10032;51.386;12.516;2023-06-01T01:27:04;100524.31;;;14.09;100.00
19748;BME280;10032;51.386;12.516;2023-06-01T01:29:37;100517.75;;;14.05;100.00
19748;BME280;10032;51.386;12.516;2023-06-01T01:32:03;100526.47;;;14.02;100.00
19748;BME280;10032;51.386;12.516;2023-06-01T01:34:31;100524.84;;;14.01;100.00
19748;BME280;10032;51.386;12.516;2023-06-01T01:36:58;100517.75;;;14.05;100.00
19748;BME280;10032;51.386;12.516;2023-06-01T01:39:23;100523.19;;;14.05;100.00
19748;BME280;10032;51.386;12.516;2023-06-01T01:41:49;100525.94;;;14.05;100.00
19748;BME280;10032;51.386;12.516;2023-06-01T01:44:14;100518.28;;;14.02;100.00
19748;BME280;10032;51.386;12.516;2023-06-01T01:46:45;100517.22;;;14.03;100.00
19748;BME280;10032;51.386;12.516;2023-06-01T01:49:18;100512.56;;;14.04;100.00
19748;BME280;10032;51.386;12.516;2023-06-01T01:54:32;100512.56;;;14.04;100.00
19748;BME280;10032;51.386;12.516;2023-06-01T01:56:59;100513.13;;;14.06;100.00
19748;BME280;10032;51.386;12.516;2023-06-01T01:59:26;100510.16;;;14.07;100.00
19748;BME280;10032;51.386;12.516;2023-06-01T02:01:52;100507.16;;;14.09;100.00
19748;BME280;10032;51.386;12.516;2023-06-01T02:04:17;100505.78;;;14.11;100.00
19748;BME280;10032;51.386;12.516;2023-06-01T02:06:43;100498.16;;;14.08;100.00
19748;BME280;10032;51.386;12.516;2023-06-01T02:09:08;100505.00;;;14.11;100.00
19748;BME280;10032;51.386;12.516;2023-06-01T02:11:37;100499.53;;;14.11;100.00
19748;BME280;10032;51.386;12.516;2023-06-01T02:14:03;100516.69;;;14.11;100.00
19748;BME280;10032;51.386;12.516;2023-06-01T02:16:28;100513.47;;;14.14;100.00
19748;BME280;10032;51.386;12.516;2023-06-01T02:18:54;100522.47;;;14.15;100.00
19748;BME280;10032;51.386;12.516;2023-06-01T02:21:23;100511.25;;;14.11;100.00
19748;BME280;10032;51.386;12.516;2023-06-01T02:23:48;100512.63;;;14.14;100.00
19748;BME280;10032;51.386;12.516;2023-06-01T02:26:13;100509.09;;;14.13;100.00
19748;BME280;10032;51.386;12.516;2023-06-01T02:28:39;100510.72;;;14.14;100.00
19748;BME280;10032;51.386;12.516;2023-06-01T02:31:06;100512.38;;;14.15;100.00
19748;BME280;10032;51.386;12.516;2023-06-01T02:33:32;100508.25;;;14.13;100.00
19748;BME280;10032;51.386;12.516;2023-06-01T02:35:58;100507.97;;;14.09;100.00
19748;BME280;10032;51.386;12.516;2023-06-01T02:38:24;100506.88;;;14.10;100.00
19748;BME280;10032;51.386;12.516;2023-06-01T02:40:49;100503.63;;;14.08;100.00
19748;BME280;10032;51.386;12.516;2023-06-01T02:43:15;100497.59;;;14.06;100.00
19748;BME280;10032;51.386;12.516;2023-06-01T02:45:40;100499.25;;;14.07;100.00
19748;BME280;10032;51.386;12.516;2023-06-01T02:48:06;100512.03;;;14.07;100.00
19748;BME280;10032;51.386;12.516;2023-06-01T02:50:31;100497.59;;;14.06;100.00
19748;BME280;10032;51.386;12.516;2023-06-01T02:52:56;100496.50;;;14.02;100.00
19748;BME280;10032;51.386;12.516;2023-06-01T02:55:22;100497.59;;;14.06;100.00
19748;BME280;10032;51.386;12.516;2023-06-01T02:57:47;100486.41;;;14.03;100.00
19748;BME280;10032;51.386;12.516;2023-06-01T03:00:13;100498.66;;;14.00;100.00
19748;BME280;10032;51.386;12.516;2023-06-01T03:02:45;100489.91;;;13.93;100.00
19748;BME280;10032;51.386;12.516;2023-06-01T03:05:11;100490.69;;;13.89;100.00
19748;BME280;10032;51.386;12.516;2023-06-01T03:07:43;100487.41;;;13.87;100.00
19748;BME280;10032;51.386;12.516;2023-06-01T03:10:09;100484.94;;;13.85;100.00
19748;BME280;10032;51.386;12.516;2023-06-01T03:12:36;100493.41;;;13.89;100.00
19748;BME280;10032;51.386;12.516;2023-06-01T03:15:02;100488.47;;;13.86;100.00
19748;BME280;10032;51.386;12.516;2023-06-01T03:17:27;100489.28;;;13.81;100.00
19748;BME280;10032;51.386;12.516;2023-06-01T03:19:53;100488.44;;;13.81;100.00
19748;BME280;10032;51.386;12.516;2023-06-01T03:22:18;100490.63;;;13.79;100.00
19748;BME280;10032;51.386;12.516;2023-06-01T03:24:44;100491.13;;;13.76;100.00
19748;BME280;10032;51.386;12.516;2023-06-01T03:27:10;100490.34;;;13.75;100.00
19748;BME280;10032;51.386;12.516;2023-06-01T03:29:38;100497.16;;;13.78;100.00
19748;BME280;10032;51.386;12.516;2023-06-01T03:32:04;100501.53;;;13.79;100.00
19748;BME280;10032;51.386;12.516;2023-06-01T03:34:29;100499.31;;;13.76;100.00
19748;BME280;10032;51.386;12.516;2023-06-01T03:36:58;100498.47;;;13.70;100.00
19748;BME280;10032;51.386;12.516;2023-06-01T03:39:23;100501.19;;;13.70;100.00
19748;BME280;10032;51.386;12.516;2023-06-01T03:41:48;100500.34;;;13.70;100.00
19748;BME280;10032;51.386;12.516;2023-06-01T03:44:17;100498.47;;;13.70;100.00
19748;BME280;10032;51.386;12.516;2023-06-01T03:46:42;100499.53;;;13.69;100.00
19748;BME280;10032;51.386;12.516;2023-06-01T03:49:10;100503.91;;;13.70;100.00
19748;BME280;10032;51.386;12.516;2023-06-01T03:51:35;100502.81;;;13.71;100.00
19748;BME280;10032;51.386;12.516;2023-06-01T03:54:01;100501.75;;;13.72;100.00
19748;BME280;10032;51.386;12.516;2023-06-01T03:56:26;100489.50;;;13.75;100.00
19748;BME280;10032;51.386;12.516;2023-06-01T03:58:52;100490.91;;;13.82;100.00
19748;BME280;10032;51.386;12.516;2023-06-01T04:01:18;100493.13;;;13.90;100.00
19748;BME280;10032;51.386;12.516;2023-06-01T04:03:45;100487.22;;;13.98;100.00
19748;BME280;10032;51.386;12.516;2023-06-01T04:06:13;100491.63;;;14.09;100.00
19748;BME280;10032;51.386;12.516;2023-06-01T04:08:45;100491.63;;;14.09;100.00
19748;BME280;10032;51.386;12.516;2023-06-01T04:11:17;100495.44;;;14.08;100.00
19748;BME280;10032;51.386;12.516;2023-06-01T04:13:43;100493.81;;;14.07;100.00
19748;BME280;10032;51.386;12.516;2023-06-01T04:16:12;100499.84;;;14.14;100.00
19748;BME280;10032;51.386;12.516;2023-06-01T04:18:37;100496.06;;;14.20;100.00
19748;BME280;10032;51.386;12.516;2023-06-01T04:21:03;100495.59;;;14.28;100.00
19748;BME280;10032;51.386;12.516;2023-06-01T04:23:28;100487.66;;;14.27;100.00
19748;BME280;10032;51.386;12.516;2023-06-01T04:25:54;100491.75;;;14.24;100.00
19748;BME280;10032;51.386;12.516;2023-06-01T04:28:27;100494.50;;;14.29;100.00
19748;BME280;10032;51.386;12.516;2023-06-01T04:30:53;100491.56;;;14.41;100.00
19748;BME280;10032;51.386;12.516;2023-06-01T04:33:19;100495.13;;;14.51;100.00
19748;BME280;10032;51.386;12.516;2023-06-01T04:35:45;100493.00;;;14.63;100.00
19748;BME280;10032;51.386;12.516;2023-06-01T04:38:10;100495.22;;;14.76;100.00
19748;BME280;10032;51.386;12.516;2023-06-01T04:40:39;100493.63;;;15.00;100.00
19748;BME280;10032;51.386;12.516;2023-06-01T04:43:05;100499.41;;;15.24;100.00
19748;BME280;10032;51.386;12.516;2023-06-01T04:45:32;100491.00;;;15.40;100.00
19748;BME280;10032;51.386;12.516;2023-06-01T04:47:59;100498.09;;;15.61;100.00
19748;BME280;10032;51.386;12.516;2023-06-01T04:50:25;100495.38;;;15.76;100.00
19748;BME280;10032;51.386;12.516;2023-06-01T04:52:54;100498.63;;;15.93;100.00
19748;BME280;10032;51.386;12.516;2023-06-01T04:55:20;100499.94;;;16.11;100.00
19748;BME280;10032;51.386;12.516;2023-06-01T04:57:46;100496.06;;;16.37;100.00
19748;BME280;10032;51.386;12.516;2023-06-01T05:00:13;100496.25;;;16.60;100.00
19748;BME280;10032;51.386;12.516;2023-06-01T05:02:42;100489.00;;;16.84;100.00
19748;BME280;10032;51.386;12.516;2023-06-01T05:05:13;100499.16;;;16.84;100.00
19748;BME280;10032;51.386;12.516;2023-06-01T05:07:40;100495.50;;;16.98;100.00
19748;BME280;10032;51.386;12.516;2023-06-01T05:10:11;100491.81;;;17.18;100.00
19748;BME280;10032;51.386;12.516;2023-06-01T05:12:37;100492.03;;;17.26;100.00
19748;BME280;10032;51.386;12.516;2023-06-01T05:15:04;100484.44;;;17.52;100.00
19748;BME280;10032;51.386;12.516;2023-06-01T05:17:30;100485.19;;;17.62;100.00
19748;BME280;10032;51.386;12.516;2023-06-01T05:19:55;100488.47;;;17.64;100.00
19748;BME280;10032;51.386;12.516;2023-06-01T05:22:22;100485.31;;;17.81;100.00
19748;BME280;10032;51.386;12.516;2023-06-01T05:24:51;100487.16;;;17.85;100.00
19748;BME280;10032;51.386;12.516;2023-06-01T05:27:19;100491.22;;;18.16;100.00
19748;BME280;10032;51.386;12.516;2023-06-01T05:29:44;100486.47;;;18.27;100.00
19748;BME280;10032;51.386;12.516;2023-06-01T05:32:10;100485.34;;;18.33;100.00
19748;BME280;10032;51.386;12.516;2023-06-01T05:34:35;100492.97;;;18.36;100.00
19748;BME280;10032;51.386;12.516;2023-06-01T05:37:03;100486.00;;;18.43;100.00
19748;BME280;10032;51.386;12.516;2023-06-01T05:39:29;100495.13;;;18.62;100.00
19748;BME280;10032;51.386;12.516;2023-06-01T05:41:55;100494.28;;;18.62;100.00
19748;BME280;10032;51.386;12.516;2023-06-01T05:44:21;100497.50;;;18.69;100.00
19748;BME280;10032;51.386;12.516;2023-06-01T05:46:46;100493.88;;;18.73;100.00
19748;BME280;10032;51.386;12.516;2023-06-01T05:49:12;100496.69;;;18.68;100.00
19748;BME280;10032;51.386;12.516;2023-06-01T05:51:43;100500.31;;;18.64;100.00
19748;BME280;10032;51.386;12.516;2023-06-01T05:54:11;100492.25;;;18.72;99.97
19748;BME280;10032;51.386;12.516;2023-06-01T05:56:37;100495.88;;;18.86;99.56
19748;BME280;10032;51.386;12.516;2023-06-01T05:59:03;100494.94;;;18.77;97.00
19748;BME280;10032;51.386;12.516;2023-06-01T06:01:29;100493.31;;;18.76;97.80
19748;BME280;10032;51.386;12.516;2023-06-01T06:03:55;100502.16;;;19.10;97.29
19748;BME280;10032;51.386;12.516;2023-06-01T06:06:21;100502.22;;;19.05;95.11
19748;BME280;10032;51.386;12.516;2023-06-01T06:08:47;100498.00;;;19.31;95.67
19748;BME280;10032;51.386;12.516;2023-06-01T06:11:13;100500.53;;;19.09;93.29
19748;BME280;10032;51.386;12.516;2023-06-01T06:13:38;100503.47;;;18.94;94.86
19748;BME280;10032;51.386;12.516;2023-06-01T06:16:04;100495.03;;;19.09;94.52
19748;BME280;10032;51.386;12.516;2023-06-01T06:18:29;100500.00;;;19.26;93.51
19748;BME280;10032;51.386;12.516;2023-06-01T06:20:55;100500.13;;;19.16;93.99
19748;BME280;10032;51.386;12.516;2023-06-01T06:23:20;100497.84;;;19.41;94.19
19748;BME280;10032;51.386;12.516;2023-06-01T06:25:46;100491.75;;;19.44;92.47
19748;BME280;10032;51.386;12.516;2023-06-01T06:28:11;100493.28;;;19.69;90.48
19748;BME280;10032;51.386;12.516;2023-06-01T06:30:37;100490.28;;;19.97;90.93
19748;BME280;10032;51.386;12.516;2023-06-01T06:33:02;100492.13;;;20.02;89.32
19748;BME280;10032;51.386;12.516;2023-06-01T06:35:28;100486.84;;;20.05;88.25
19748;BME280;10032;51.386;12.516;2023-06-01T06:37:53;100484.69;;;20.02;87.94
19748;BME280;10032;51.386;12.516;2023-06-01T06:40:18;100495.09;;;20.05;88.68
19748;BME280;10032;51.386;12.516;2023-06-01T06:42:45;100492.88;;;20.21;88.13
19748;BME280;10032;51.386;12.516;2023-06-01T06:45:11;100499.53;;;20.20;87.21
19748;BME280;10032;51.386;12.516;2023-06-01T06:47:39;100496.47;;;20.21;87.29
19748;BME280;10032;51.386;12.516;2023-06-01T06:50:07;100491.56;;;20.18;86.28
19748;BME280;10032;51.386;12.516;2023-06-01T06:52:32;100497.72;;;20.42;86.24
19748;BME280;10032;51.386;12.516;2023-06-01T06:54:58;100493.53;;;20.58;85.13
19748;BME280;10032;51.386;12.516;2023-06-01T06:57:23;100503.22;;;20.56;84.85
19748;BME280;10032;51.386;12.516;2023-06-01T06:59:48;100493.59;;;20.94;84.36
19748;BME280;10032;51.386;12.516;2023-06-01T07:02:14;100491.94;;;21.06;83.39
19748;BME280;10032;51.386;12.516;2023-06-01T07:04:40;100494.97;;;21.18;82.77
19748;BME280;10032;51.386;12.516;2023-06-01T07:07:05;100495.19;;;21.22;82.78
19748;BME280;10032;51.386;12.516;2023-06-01T07:09:31;100499.16;;;21.51;82.63
19748;BME280;10032;51.386;12.516;2023-06-01T07:11:57;100492.53;;;21.74;81.97
19748;BME280;10032;51.386;12.516;2023-06-01T07:14:22;100496.69;;;21.94;81.84
19748;BME280;10032;51.386;12.516;2023-06-01T07:16:47;100492.22;;;22.06;79.19
19748;BME280;10032;51.386;12.516;2023-06-01T07:19:13;100502.56;;;21.70;79.51
19748;BME280;10032;51.386;12.516;2023-06-01T07:21:38;100496.31;;;21.43;79.75
19748;BME280;10032;51.386;12.516;2023-06-01T07:24:04;100500.66;;;21.35;79.96
19748;BME280;10032;51.386;12.516;2023-06-01T07:26:30;100495.25;;;21.52;79.89
19748;BME280;10032;51.386;12.516;2023-06-01T07:28:56;100492.31;;;21.49;79.21
19748;BME280;10032;51.386;12.516;2023-06-01T07:31:22;100498.69;;;21.58;77.81
19748;BME280;10032;51.386;12.516;2023-06-01T07:33:48;100490.06;;;21.51;78.17
19748;BME280;10032;51.386;12.516;2023-06-01T07:36:13;100491.22;;;21.72;76.39
19748;BME280;10032;51.386;12.516;2023-06-01T07:38:39;100498.66;;;21.71;75.39
19748;BME280;10032;51.386;12.516;2023-06-01T07:41:05;100497.72;;;21.76;75.63
19748;BME280;10032;51.386;12.516;2023-06-01T07:43:31;100482.09;;;21.71;74.68
19748;BME280;10032;51.386;12.516;2023-06-01T07:45:56;100483.09;;;21.53;73.14
19748;BME280;10032;51.386;12.516;2023-06-01T07:48:22;100480.09;;;21.63;73.86
19748;BME280;10032;51.386;12.516;2023-06-01T07:50:48;100483.94;;;21.76;74.10
19748;BME280;10032;51.386;12.516;2023-06-01T07:53:16;100479.34;;;21.93;72.05
19748;BME280;10032;51.386;12.516;2023-06-01T07:55:43;100484.88;;;21.93;72.41
19748;BME280;10032;51.386;12.516;2023-06-01T07:58:09;100479.34;;;21.93;71.97
19748;BME280;10032;51.386;12.516;2023-06-01T08:00:34;100482.31;;;21.75;72.05
19748;BME280;10032;51.386;12.516;2023-06-01T08:03:01;100475.44;;;21.94;71.38
19748;BME280;10032;51.386;12.516;2023-06-01T08:05:33;100471.50;;;22.17;71.83
19748;BME280;10032;51.386;12.516;2023-06-01T08:07:59;100473.97;;;22.27;70.18
19748;BME280;10032;51.386;12.516;2023-06-01T08:10:24;100472.84;;;22.28;69.39
19748;BME280;10032;51.386;12.516;2023-06-01T08:12:50;100478.97;;;21.86;69.30
19748;BME280;10032;51.386;12.516;2023-06-01T08:15:18;100472.44;;;21.82;69.51
19748;BME280;10032;51.386;12.516;2023-06-01T08:17:45;100473.09;;;21.79;69.70
19748;BME280;10032;51.386;12.516;2023-06-01T08:20:10;100473.03;;;22.01;69.96
19748;BME280;10032;51.386;12.516;2023-06-01T08:22:37;100469.78;;;22.38;69.25
19748;BME280;10032;51.386;12.516;2023-06-01T08:25:03;100466.06;;;22.43;67.57
19748;BME280;10032;51.386;12.516;2023-06-01T08:27:29;100470.88;;;22.20;68.00
19748;BME280;10032;51.386;12.516;2023-06-01T08:29:55;100470.88;;;22.20;67.07
19748;BME280;10032;51.386;12.516;2023-06-01T08:32:20;100474.31;;;22.34;66.07
19748;BME280;10032;51.386;12.516;2023-06-01T08:34:46;100467.47;;;22.23;66.62
19748;BME280;10032;51.386;12.516;2023-06-01T08:37:13;100460.16;;;22.27;66.57
19748;BME280;10032;51.386;12.516;2023-06-01T08:39:38;100465.06;;;22.30;66.77
19748;BME280;10032;51.386;12.516;2023-06-01T08:42:25;100465.38;;;22.29;66.29
19748;BME280;10032;51.386;12.516;2023-06-01T08:44:54;100461.78;;;22.28;66.83
19748;BME280;10032;51.386;12.516;2023-06-01T08:47:25;100462.06;;;22.49;64.63
19748;BME280;10032;51.386;12.516;2023-06-01T08:49:52;100458.13;;;22.41;66.17
19748;BME280;10032;51.386;12.516;2023-06-01T08:52:22;100457.88;;;22.51;66.19
19748;BME280;10032;51.386;12.516;2023-06-01T08:54:48;100453.38;;;22.89;66.25
19748;BME280;10032;51.386;12.516;2023-06-01T08:57:13;100455.34;;;22.97;65.21
19748;BME280;10032;51.386;12.516;2023-06-01T08:59:41;100452.44;;;23.19;65.56
19748;BME280;10032;51.386;12.516;2023-06-01T09:02:06;100452.56;;;22.89;63.58
19748;BME280;10032;51.386;12.516;2023-06-01T09:04:32;100452.34;;;22.51;64.27
19748;BME280;10032;51.386;12.516;2023-06-01T09:07:03;100455.25;;;22.46;64.87
19748;BME280;10032;51.386;12.516;2023-06-01T09:09:29;100451.06;;;22.57;64.43
19748;BME280;10032;51.386;12.516;2023-06-01T09:14:50;100456.06;;;22.16;62.09
19748;BME280;10032;51.386;12.516;2023-06-01T09:17:23;100455.88;;;21.82;62.93
19748;BME280;10032;51.386;12.516;2023-06-01T09:19:54;100450.88;;;21.84;63.77
19748;BME280;10032;51.386;12.516;2023-06-01T09:22:20;100448.28;;;21.88;63.68
19748;BME280;10032;51.386;12.516;2023-06-01T09:24:58;100451.78;;;22.02;63.20
19748;BME280;10032;51.386;12.516;2023-06-01T09:27:25;100450.09;;;22.23;63.00
19748;BME280;10032;51.386;12.516;2023-06-01T09:29:56;100451.53;;;22.59;63.69
19748;BME280;10032;51.386;12.516;2023-06-01T09:32:22;100444.59;;;22.96;62.88
19748;BME280;10032;51.386;12.516;2023-06-01T09:34:47;100451.78;;;23.05;62.27
19748;BME280;10032;51.386;12.516;2023-06-01T09:37:13;100447.19;;;22.92;64.03
19748;BME280;10032;51.386;12.516;2023-06-01T09:39:39;100437.50;;;23.20;63.71
19748;BME280;10032;51.386;12.516;2023-06-01T09:42:08;100444.94;;;23.11;62.91
19748;BME280;10032;51.386;12.516;2023-06-01T09:44:36;100438.28;;;23.38;64.46
19748;BME280;10032;51.386;12.516;2023-06-01T09:47:10;100437.47;;;23.46;63.06
19748;BME280;10032;51.386;12.516;2023-06-01T09:49:44;100440.47;;;23.87;62.16
19748;BME280;10032;51.386;12.516;2023-06-01T09:52:14;100437.75;;;23.78;62.68
19748;BME280;10032;51.386;12.516;2023-06-01T09:54:48;100433.44;;;24.06;62.52
19748;BME280;10032;51.386;12.516;2023-06-01T09:57:23;100423.31;;;24.10;60.41
19748;BME280;10032;51.386;12.516;2023-06-01T09:59:49;100422.34;;;24.06;59.13
19748;BME280;10032;51.386;12.516;2023-06-01T10:02:18;100420.69;;;24.43;59.01
19748;BME280;10032;51.386;12.516;2023-06-01T10:05:02;100416.81;;;24.35;58.09
19748;BME280;10032;51.386;12.516;2023-06-01T10:07:30;100421.53;;;24.06;57.62
19748;BME280;10032;51.386;12.516;2023-06-01T10:10:00;100420.34;;;23.61;56.92
19748;BME280;10032;51.386;12.516;2023-06-01T10:12:29;100420.22;;;23.40;56.70
19748;BME280;10032;51.386;12.516;2023-06-01T10:14:58;100420.84;;;23.03;57.02
19748;BME280;10032;51.386;12.516;2023-06-01T10:17:25;100411.16;;;23.23;57.78
19748;BME280;10032;51.386;12.516;2023-06-01T10:19:51;100405.88;;;23.55;58.43
19748;BME280;10032;51.386;12.516;2023-06-01T10:22:16;100410.50;;;23.97;58.99
19748;BME280;10032;51.386;12.516;2023-06-01T10:24:42;100403.81;;;23.98;58.52
19748;BME280;10032;51.386;12.516;2023-06-01T10:27:31;100401.66;;;24.41;58.94
19748;BME280;10032;51.386;12.516;2023-06-01T10:29:58;100400.09;;;24.61;58.42
19748;BME280;10032;51.386;12.516;2023-06-01T10:35:03;100406.44;;;24.61;58.09
19748;BME280;10032;51.386;12.516;2023-06-01T10:37:28;100396.50;;;24.31;57.20
19748;BME280;10032;51.386;12.516;2023-06-01T10:42:38;100379.88;;;24.60;57.92
19748;BME280;10032;51.386;12.516;2023-06-01T10:45:04;100381.03;;;25.00;57.66
19748;BME280;10032;51.386;12.516;2023-06-01T10:54:49;100376.00;;;25.79;56.86
19748;BME280;10032;51.386;12.516;2023-06-01T10:57:33;100374.00;;;26.00;54.40
19748;BME280;10032;51.386;12.516;2023-06-01T11:03:00;100377.75;;;25.84;55.83
19748;BME280;10032;51.386;12.516;2023-06-01T11:05:43;100365.88;;;26.07;55.02
19748;BME280;10032;51.386;12.516;2023-06-01T11:13:18;100366.19;;;25.37;54.10
19748;BME280;10032;51.386;12.516;2023-06-01T11:21:19;100359.28;;;25.43;54.60
19748;BME280;10032;51.386;12.516;2023-06-01T11:23:47;100351.78;;;25.23;53.88
19748;BME280;10032;51.386;12.516;2023-06-01T11:26:19;100352.44;;;25.41;54.24
19748;BME280;10032;51.386;12.516;2023-06-01T11:28:47;100350.19;;;25.67;54.44
19748;BME280;10032;51.386;12.516;2023-06-01T11:31:16;100346.84;;;25.73;54.34
19748;BME280;10032;51.386;12.516;2023-06-01T11:33:48;100345.91;;;25.69;54.20
19748;BME280;10032;51.386;12.516;2023-06-01T11:36:18;100342.44;;;25.72;54.12
19748;BME280;10032;51.386;12.516;2023-06-01T11:38:45;100343.38;;;25.64;53.16
19748;BME280;10032;51.386;12.516;2023-06-01T11:41:11;100346.78;;;25.49;53.10
19748;BME280;10032;51.386;12.516;2023-06-01T11:43:36;100345.06;;;25.57;53.59
19748;BME280;10032;51.386;12.516;2023-06-01T11:46:06;100339.28;;;25.50;53.46
19748;BME280;10032;51.386;12.516;2023-06-01T11:48:33;100341.03;;;25.54;53.24
19748;BME280;10032;51.386;12.516;2023-06-01T11:51:05;100338.03;;;25.59;53.11
19748;BME280;10032;51.386;12.516;2023-06-01T11:53:31;100334.56;;;25.62;53.04
19748;BME280;10032;51.386;12.516;2023-06-01T11:55:59;100325.56;;;25.89;52.78
19748;BME280;10032;51.386;12.516;2023-06-01T11:58:29;100322.38;;;26.11;52.96
19748;BME280;10032;51.386;12.516;2023-06-01T12:00:57;100316.88;;;26.39;52.25
19748;BME280;10032;51.386;12.516;2023-06-01T12:03:23;100320.81;;;26.38;51.16
19748;BME280;10032;51.386;12.516;2023-06-01T12:05:52;100325.03;;;26.08;51.36
19748;BME280;10032;51.386;12.516;2023-06-01T12:08:22;100318.38;;;25.88;51.14
19748;BME280;10032;51.386;12.516;2023-06-01T12:10:50;100310.66;;;25.94;51.14
19748;BME280;10032;51.386;12.516;2023-06-01T12:13:17;100310.88;;;25.77;51.00
19748;BME280;10032;51.386;12.516;2023-06-01T12:15:44;100305.88;;;25.82;51.15
19748;BME280;10032;51.386;12.516;2023-06-01T12:18:09;100299.78;;;26.01;51.63
19748;BME280;10032;51.386;12.516;2023-06-01T12:20:40;100309.84;;;25.93;50.49
19748;BME280;10032;51.386;12.516;2023-06-01T12:25:35;100296.06;;;26.84;49.82
19748;BME280;10032;51.386;12.516;2023-06-01T12:28:05;100293.66;;;26.71;49.49
19748;BME280;10032;51.386;12.516;2023-06-01T12:30:31;100287.44;;;26.62;49.97
19748;BME280;10032;51.386;12.516;2023-06-01T12:32:57;100288.66;;;27.04;50.27
19748;BME280;10032;51.386;12.516;2023-06-01T12:35:22;100287.47;;;27.32;48.21
19748;BME280;10032;51.386;12.516;2023-06-01T12:38:08;100278.59;;;27.42;47.63
19748;BME280;10032;51.386;12.516;2023-06-01T12:40:35;100276.44;;;27.51;48.10
19748;BME280;10032;51.386;12.516;2023-06-01T12:43:01;100277.72;;;27.69;48.50
19748;BME280;10032;51.386;12.516;2023-06-01T12:45:35;100278.41;;;27.35;46.20
19748;BME280;10032;51.386;12.516;2023-06-01T12:48:01;100271.75;;;27.24;46.98
19748;BME280;10032;51.386;12.516;2023-06-01T12:50:27;100271.75;;;26.97;45.88
19748;BME280;10032;51.386;12.516;2023-06-01T12:52:52;100269.22;;;27.19;46.24
19748;BME280;10032;51.386;12.516;2023-06-01T12:55:18;100266.66;;;27.42;46.92
19748;BME280;10032;51.386;12.516;2023-06-01T12:57:52;100268.69;;;27.29;45.75
19748;BME280;10032;51.386;12.516;2023-06-01T13:00:18;100271.88;;;27.00;46.00
19748;BME280;10032;51.386;12.516;2023-06-01T13:02:44;100270.03;;;26.92;45.92
19748;BME280;10032;51.386;12.516;2023-06-01T13:05:14;100265.28;;;26.93;46.33
19748;BME280;10032;51.386;12.516;2023-06-01T13:07:41;100271.31;;;26.95;45.91
19748;BME280;10032;51.386;12.516;2023-06-01T13:10:07;100255.59;;;26.87;46.59
19748;BME280;10032;51.386;12.516;2023-06-01T13:12:34;100259.84;;;27.12;46.71
19748;BME280;10032;51.386;12.516;2023-06-01T13:14:59;100258.09;;;27.19;46.17
19748;BME280;10032;51.386;12.516;2023-06-01T13:17:26;100244.09;;;27.47;46.52